createdAt,value
2022-10-29T00:01:28.370Z,10.51
2022-10-29T00:03:55.802Z,10.45
2022-10-29T00:06:23.550Z,10.28
2022-10-29T00:08:50.990Z,10.30
2022-10-29T00:11:21.350Z,10.28
2022-10-29T00:13:53.982Z,10.19
2022-10-29T00:16:24.471Z,10.09
2022-10-29T00:18:52.296Z,10.06
2022-10-29T00:21:23.184Z,10.02
2022-10-29T00:23:51.822Z,10.00
2022-10-29T00:26:21.750Z,10.02
2022-10-29T00:28:52.281Z,9.82
2022-10-29T00:31:20.384Z,9.86
2022-10-29T00:33:48.188Z,9.79
2022-10-29T00:36:21.595Z,9.88
2022-10-29T00:38:51.759Z,9.77
2022-10-29T00:41:23.373Z,9.77
2022-10-29T00:43:51.797Z,9.72
2022-10-29T00:46:30.808Z,9.65
2022-10-29T00:48:59.121Z,9.74
2022-10-29T00:51:30.247Z,9.66
2022-10-29T00:54:03.281Z,9.62
2022-10-29T00:56:35.682Z,9.65
2022-10-29T00:59:03.831Z,9.60
2022-10-29T01:01:31.960Z,9.39
2022-10-29T01:04:02.777Z,9.58
2022-10-29T01:06:31.483Z,9.57
2022-10-29T01:08:59.098Z,9.58
2022-10-29T01:11:45.464Z,9.50
2022-10-29T01:14:34.283Z,9.54
2022-10-29T01:17:11.325Z,9.65
2022-10-29T01:19:53.014Z,9.42
2022-10-29T01:22:44.392Z,9.43
2022-10-29T01:25:32.767Z,9.38
2022-10-29T01:28:13.936Z,9.49
2022-10-29T01:31:13.954Z,9.40
2022-10-29T01:34:20.571Z,9.37
2022-10-29T01:36:50.949Z,9.41
2022-10-29T01:39:27.452Z,9.33
2022-10-29T01:42:02.332Z,9.34
2022-10-29T01:44:42.714Z,9.34
2022-10-29T01:47:19.229Z,9.28
2022-10-29T01:49:51.550Z,9.27
2022-10-29T01:52:21.962Z,9.18
2022-10-29T01:54:49.496Z,9.21
2022-10-29T01:57:43.055Z,9.33
2022-10-29T02:00:14.749Z,9.37
2022-10-29T02:03:00.852Z,9.16
2022-10-29T02:05:34.908Z,9.21
2022-10-29T02:08:14.082Z,9.06
2022-10-29T02:10:55.573Z,9.18
2022-10-29T02:13:30.638Z,9.21
2022-10-29T02:16:00.327Z,9.22
2022-10-29T02:18:27.739Z,9.14
2022-10-29T02:20:55.559Z,9.33
2022-10-29T02:23:22.944Z,9.20
2022-10-29T02:25:50.435Z,9.18
2022-10-29T02:28:18.002Z,9.37
2022-10-29T02:30:45.399Z,9.25
2022-10-29T02:33:15.412Z,9.12
2022-10-29T02:35:42.795Z,8.94
2022-10-29T02:38:10.066Z,8.75
2022-10-29T02:40:37.404Z,8.80
2022-10-29T02:43:04.730Z,8.89
2022-10-29T02:45:32.254Z,8.88
2022-10-29T02:47:59.984Z,8.81
2022-10-29T02:50:27.426Z,8.84
2022-10-29T02:52:54.781Z,8.88
2022-10-29T02:55:22.116Z,8.81
2022-10-29T02:57:49.673Z,8.73
2022-10-29T03:00:17.325Z,8.73
2022-10-29T03:02:44.860Z,8.65
2022-10-29T03:05:12.361Z,8.65
2022-10-29T03:07:39.710Z,8.78
2022-10-29T03:10:08.149Z,8.78
2022-10-29T03:12:35.955Z,8.83
2022-10-29T03:15:03.443Z,8.93
2022-10-29T03:17:30.818Z,8.68
2022-10-29T03:19:58.172Z,8.64
2022-10-29T03:22:25.496Z,8.57
2022-10-29T03:24:52.827Z,8.40
2022-10-29T03:27:20.427Z,8.43
2022-10-29T03:29:47.922Z,8.54
2022-10-29T03:32:15.348Z,8.35
2022-10-29T03:34:42.844Z,8.39
2022-10-29T03:37:10.298Z,8.29
2022-10-29T03:39:37.636Z,8.47
2022-10-29T03:42:05.254Z,8.54
2022-10-29T03:44:32.647Z,8.56
2022-10-29T03:47:00.101Z,10.37
2022-10-29T03:49:28.842Z,11.93
2022-10-29T03:51:59.848Z,13.31
2022-10-29T03:54:33.394Z,13.79
2022-10-29T03:57:00.984Z,13.82
2022-10-29T03:59:28.518Z,13.00
2022-10-29T04:02:02.172Z,12.89
2022-10-29T04:04:30.026Z,13.16
2022-10-29T04:06:57.368Z,12.86
2022-10-29T04:09:25.108Z,12.61
2022-10-29T04:11:53.588Z,13.02
2022-10-29T04:14:22.121Z,13.10
2022-10-29T04:16:50.051Z,12.91
2022-10-29T04:19:17.958Z,13.44
2022-10-29T04:26:34.677Z,10.07
2022-10-29T04:30:10.414Z,8.70
2022-10-29T04:32:38.448Z,8.55
2022-10-29T04:35:06.798Z,8.39
2022-10-29T04:37:36.871Z,8.40
2022-10-29T04:40:04.688Z,8.31
2022-10-29T04:42:39.636Z,8.13
2022-10-29T04:45:10.907Z,8.06
2022-10-29T04:47:40.856Z,8.03
2022-10-29T04:50:08.662Z,7.99
2022-10-29T04:52:36.253Z,8.01
2022-10-29T04:55:03.746Z,7.99
2022-10-29T04:57:31.122Z,7.93
2022-10-29T04:59:58.632Z,7.87
2022-10-29T05:02:26.086Z,7.93
2022-10-29T05:04:53.860Z,7.92
2022-10-29T05:07:21.731Z,7.81
2022-10-29T05:09:49.325Z,7.78
2022-10-29T05:12:17.311Z,7.72
2022-10-29T05:14:44.853Z,7.71
2022-10-29T05:17:12.339Z,7.70
2022-10-29T05:19:46.280Z,7.78
2022-10-29T05:22:13.814Z,7.79
2022-10-29T05:24:42.105Z,8.07
2022-10-29T05:27:09.497Z,8.06
2022-10-29T05:29:36.963Z,8.09
2022-10-29T05:32:04.960Z,8.14
2022-10-29T05:34:32.385Z,8.12
2022-10-29T05:36:59.738Z,8.09
2022-10-29T05:39:27.457Z,8.00
2022-10-29T05:41:59.846Z,7.97
2022-10-29T05:44:27.368Z,8.37
2022-10-29T05:46:54.718Z,8.25
2022-10-29T05:49:22.188Z,8.61
2022-10-29T05:51:50.889Z,8.72
2022-10-29T05:54:19.034Z,8.82
2022-10-29T05:56:46.443Z,8.72
2022-10-29T05:59:14.013Z,8.58
2022-10-29T06:01:41.511Z,8.70
2022-10-29T06:04:09.082Z,8.74
2022-10-29T06:06:39.656Z,8.97
2022-10-29T06:09:08.144Z,9.00
2022-10-29T06:11:35.852Z,9.33
2022-10-29T06:14:03.191Z,9.05
2022-10-29T06:16:30.509Z,9.21
2022-10-29T06:18:57.781Z,9.13
2022-10-29T06:21:25.133Z,9.29
2022-10-29T06:23:52.420Z,9.35
2022-10-29T06:26:20.115Z,9.51
2022-10-29T06:28:48.179Z,9.66
2022-10-29T06:31:15.682Z,9.87
2022-10-29T06:33:43.065Z,9.82
2022-10-29T06:36:10.728Z,9.88
2022-10-29T06:38:38.181Z,9.92
2022-10-29T06:41:05.993Z,10.04
2022-10-29T06:43:33.710Z,9.98
2022-10-29T06:46:01.288Z,9.91
2022-10-29T06:48:28.732Z,10.17
2022-10-29T06:50:58.629Z,10.24
2022-10-29T06:53:26.790Z,10.48
2022-10-29T06:55:54.214Z,10.48
2022-10-29T06:58:21.973Z,10.66
2022-10-29T07:00:49.449Z,10.70
2022-10-29T07:03:19.092Z,10.71
2022-10-29T07:05:47.502Z,10.84
2022-10-29T07:08:14.966Z,10.91
2022-10-29T07:10:42.611Z,10.87
2022-10-29T07:13:10.090Z,10.91
2022-10-29T07:15:37.525Z,11.18
2022-10-29T07:18:07.355Z,11.20
2022-10-29T07:20:37.588Z,11.34
2022-10-29T07:23:05.489Z,11.61
2022-10-29T07:25:33.939Z,11.83
2022-10-29T07:28:07.006Z,11.70
2022-10-29T07:30:34.865Z,11.65
2022-10-29T07:33:02.235Z,11.71
2022-10-29T07:35:29.759Z,11.52
2022-10-29T07:38:05.316Z,11.45
2022-10-29T07:40:39.733Z,11.79
2022-10-29T07:43:11.119Z,11.69
2022-10-29T07:45:38.256Z,11.86
2022-10-29T07:48:06.939Z,11.94
2022-10-29T07:50:34.168Z,11.79
2022-10-29T07:53:04.028Z,11.90
2022-10-29T07:55:31.615Z,11.91
2022-10-29T07:58:00.438Z,11.98
2022-10-29T08:00:30.390Z,12.16
2022-10-29T08:02:58.293Z,12.20
2022-10-29T08:05:27.362Z,12.38
2022-10-29T08:07:55.614Z,12.51
2022-10-29T08:10:24.390Z,12.55
2022-10-29T08:12:57.755Z,12.59
2022-10-29T08:15:26.813Z,12.65
2022-10-29T08:17:54.364Z,15.89
2022-10-29T08:20:23.524Z,14.27
2022-10-29T08:22:50.813Z,13.76
2022-10-29T08:25:18.514Z,13.70
2022-10-29T08:27:46.267Z,13.57
2022-10-29T08:30:14.078Z,13.52
2022-10-29T08:32:47.339Z,13.47
2022-10-29T08:35:15.177Z,13.55
2022-10-29T08:37:43.608Z,15.72
2022-10-29T08:40:53.338Z,17.04
2022-10-29T08:43:32.716Z,17.41
2022-10-29T08:46:00.179Z,17.02
2022-10-29T08:48:47.311Z,16.00
2022-10-29T08:51:21.978Z,15.54
2022-10-29T08:54:17.058Z,15.16
2022-10-29T08:56:44.272Z,14.96
2022-10-29T08:59:18.259Z,15.05
2022-10-29T09:01:46.288Z,15.14
2022-10-29T09:04:34.628Z,15.39
2022-10-29T09:07:26.001Z,15.41
2022-10-29T09:09:59.201Z,15.56
2022-10-29T09:12:26.395Z,15.60
2022-10-29T09:15:24.559Z,16.19
2022-10-29T09:18:11.856Z,17.12
2022-10-29T09:20:42.125Z,17.90
2022-10-29T09:23:12.524Z,17.86
2022-10-29T09:25:51.097Z,17.90
2022-10-29T09:28:39.296Z,17.34
2022-10-29T09:31:09.555Z,16.94
2022-10-29T09:33:37.926Z,16.60
2022-10-29T09:36:14.646Z,16.56
2022-10-29T09:38:52.123Z,16.67
2022-10-29T09:41:22.012Z,16.64
2022-10-29T09:43:55.899Z,16.67
2022-10-29T09:46:52.846Z,16.81
2022-10-29T09:49:49.081Z,16.81
2022-10-29T09:52:19.089Z,16.90
2022-10-29T09:54:49.877Z,16.96
2022-10-29T09:57:28.111Z,16.89
2022-10-29T10:00:29.466Z,16.84
2022-10-29T10:03:14.949Z,16.86
2022-10-29T10:06:03.882Z,17.07
2022-10-29T10:08:32.648Z,17.07
2022-10-29T10:11:07.542Z,17.07
2022-10-29T10:13:37.975Z,17.00
2022-10-29T10:16:06.629Z,16.93
2022-10-29T10:18:41.412Z,17.15
2022-10-29T10:21:11.597Z,17.06
2022-10-29T10:23:50.019Z,17.05
2022-10-29T10:26:34.812Z,17.16
2022-10-29T10:29:17.248Z,17.21
2022-10-29T10:31:46.838Z,17.80
2022-10-29T10:34:18.536Z,18.44
2022-10-29T10:37:11.015Z,19.09
2022-10-29T10:40:00.515Z,18.97
2022-10-29T10:42:34.934Z,19.01
2022-10-29T10:45:24.578Z,18.90
2022-10-29T10:47:55.366Z,19.00
2022-10-29T10:50:30.279Z,19.95
2022-10-29T10:53:02.445Z,20.18
2022-10-29T10:55:37.874Z,19.51
2022-10-29T10:58:13.930Z,18.93
2022-10-29T11:00:47.797Z,18.70
2022-10-29T11:06:00.960Z,18.27
2022-10-29T11:08:34.566Z,18.34
2022-10-29T11:11:17.448Z,18.42
2022-10-29T11:13:44.706Z,18.52
2022-10-29T11:16:30.704Z,18.71
2022-10-29T11:19:07.268Z,18.92
2022-10-29T11:21:46.505Z,19.30
2022-10-29T11:24:30.291Z,19.87
2022-10-29T11:27:08.067Z,19.75
2022-10-29T11:29:55.089Z,19.78
2022-10-29T11:32:38.907Z,19.67
2022-10-29T11:35:13.725Z,19.66
2022-10-29T11:37:53.050Z,19.68
2022-10-29T11:40:34.127Z,19.52
2022-10-29T11:43:05.699Z,19.75
2022-10-29T11:45:48.412Z,19.83
2022-10-29T11:48:41.247Z,19.94
2022-10-29T11:51:32.666Z,20.03
2022-10-29T11:54:37.519Z,19.72
2022-10-29T11:57:32.895Z,19.97
2022-10-29T12:00:12.410Z,19.90
2022-10-29T12:03:35.728Z,19.46
2022-10-29T12:06:15.676Z,19.53
2022-10-29T12:09:02.029Z,19.61
2022-10-29T12:11:45.198Z,19.59
2022-10-29T12:14:18.206Z,19.71
2022-10-29T12:17:09.535Z,19.59
2022-10-29T12:20:02.116Z,19.58
2022-10-29T12:22:35.131Z,19.46
2022-10-29T12:25:26.560Z,19.39
2022-10-29T12:28:11.972Z,19.32
2022-10-29T12:30:47.293Z,19.20
2022-10-29T12:33:25.201Z,19.31
2022-10-29T12:36:18.982Z,19.48
2022-10-29T12:38:55.009Z,19.29
2022-10-29T12:41:31.562Z,19.36
2022-10-29T12:44:13.464Z,19.47
2022-10-29T12:47:23.661Z,19.31
2022-10-29T12:49:51.295Z,19.30
2022-10-29T12:52:24.632Z,19.31
2022-10-29T12:54:53.448Z,19.37
2022-10-29T12:57:28.924Z,19.43
2022-10-29T13:00:16.422Z,19.57
2022-10-29T13:02:44.541Z,19.59
2022-10-29T13:05:14.974Z,19.47
2022-10-29T13:07:45.374Z,19.49
2022-10-29T13:10:22.170Z,19.53
2022-10-29T13:12:58.307Z,19.46
2022-10-29T13:15:34.162Z,19.50
2022-10-29T13:18:17.958Z,19.34
2022-10-29T13:20:52.152Z,19.22
2022-10-29T13:23:27.174Z,19.22
2022-10-29T13:26:08.334Z,19.21
2022-10-29T13:28:35.576Z,19.20
2022-10-29T13:31:02.839Z,19.19
2022-10-29T13:33:30.071Z,19.18
2022-10-29T13:36:01.185Z,19.20
2022-10-29T13:38:52.037Z,19.20
2022-10-29T13:41:37.092Z,19.14
2022-10-29T13:44:17.271Z,19.10
2022-10-29T13:46:56.659Z,19.06
2022-10-29T13:49:26.151Z,19.02
2022-10-29T13:51:59.544Z,18.98
2022-10-29T13:54:50.766Z,18.94
2022-10-29T13:57:25.631Z,18.92
2022-10-29T14:00:07.287Z,18.86
2022-10-29T14:02:43.819Z,18.84
2022-10-29T14:05:11.213Z,19.56
2022-10-29T14:08:18.900Z,19.43
2022-10-29T14:10:50.372Z,19.61
2022-10-29T14:13:40.963Z,19.38
2022-10-29T14:16:13.539Z,19.26
2022-10-29T14:18:50.984Z,19.01
2022-10-29T14:21:22.103Z,18.84
2022-10-29T14:23:56.079Z,18.74
2022-10-29T14:26:24.227Z,18.72
2022-10-29T14:28:54.888Z,18.67
2022-10-29T14:31:25.728Z,18.60
2022-10-29T14:34:00.702Z,18.49
2022-10-29T14:36:37.285Z,19.03
2022-10-29T14:39:37.011Z,19.09
2022-10-29T14:42:45.230Z,19.03
2022-10-29T14:45:25.190Z,18.87
2022-10-29T14:47:55.644Z,19.18
2022-10-29T14:50:26.330Z,19.27
2022-10-29T14:53:01.283Z,19.35
2022-10-29T14:55:37.467Z,19.06
2022-10-29T14:58:20.877Z,18.55
2022-10-29T15:01:13.264Z,18.06
2022-10-29T15:03:46.632Z,17.85
2022-10-29T15:06:25.122Z,17.67
2022-10-29T15:09:00.823Z,17.52
2022-10-29T15:11:47.467Z,17.41
2022-10-29T15:14:37.274Z,17.33
2022-10-29T15:17:31.042Z,17.24
2022-10-29T15:20:03.435Z,18.40
2022-10-29T15:22:41.313Z,19.08
2022-10-29T15:25:17.935Z,18.55
2022-10-29T15:27:48.647Z,17.85
2022-10-29T15:30:28.155Z,17.55
2022-10-29T15:32:59.360Z,17.16
2022-10-29T15:35:28.171Z,17.01
2022-10-29T15:38:01.057Z,16.95
2022-10-29T15:40:28.687Z,16.78
2022-10-29T15:42:56.201Z,16.66
2022-10-29T15:45:23.659Z,16.63
2022-10-29T15:47:56.995Z,16.48
2022-10-29T15:50:48.511Z,16.28
2022-10-29T15:53:19.336Z,16.17
2022-10-29T15:55:52.213Z,16.19
2022-10-29T15:58:28.677Z,17.50
2022-10-29T16:00:55.959Z,16.94
2022-10-29T16:03:26.180Z,16.32
2022-10-29T16:05:59.300Z,15.91
2022-10-29T16:08:33.422Z,15.68
2022-10-29T16:11:02.197Z,15.68
2022-10-29T16:13:33.011Z,15.62
2022-10-29T16:16:01.214Z,15.58
2022-10-29T16:18:30.973Z,15.51
2022-10-29T16:21:00.800Z,15.50
2022-10-29T16:23:28.028Z,15.60
2022-10-29T16:26:01.052Z,15.58
2022-10-29T16:28:31.806Z,15.47
2022-10-29T16:31:03.023Z,15.27
2022-10-29T16:33:30.422Z,15.40
2022-10-29T16:35:57.731Z,15.30
2022-10-29T16:38:31.384Z,15.22
2022-10-29T16:41:02.181Z,15.29
2022-10-29T16:43:29.511Z,15.09
2022-10-29T16:45:58.574Z,14.96
2022-10-29T16:48:30.999Z,15.06
2022-10-29T16:51:04.041Z,14.86
2022-10-29T16:53:31.415Z,14.76
2022-10-29T16:56:01.780Z,14.66
2022-10-29T16:58:29.114Z,14.65
2022-10-29T17:01:05.048Z,14.63
2022-10-29T17:03:32.807Z,14.81
2022-10-29T17:06:08.820Z,14.72
2022-10-29T17:08:37.687Z,14.74
2022-10-29T17:11:08.052Z,14.64
2022-10-29T17:13:38.574Z,14.65
2022-10-29T17:16:08.071Z,14.64
2022-10-29T17:18:38.194Z,14.63
2022-10-29T17:21:05.917Z,14.44
2022-10-29T17:23:33.517Z,14.43
2022-10-29T17:26:01.330Z,14.43
2022-10-29T17:28:28.973Z,14.42
2022-10-29T17:30:56.336Z,14.44
2022-10-29T17:33:23.780Z,14.38
2022-10-29T17:36:05.757Z,14.40
2022-10-29T17:38:35.928Z,14.38
2022-10-29T17:41:07.455Z,14.20
2022-10-29T17:43:34.711Z,14.17
2022-10-29T17:46:04.711Z,14.20
2022-10-29T17:48:32.036Z,14.18
2022-10-29T17:51:01.344Z,14.30
2022-10-29T17:53:30.008Z,14.22
2022-10-29T17:56:00.821Z,14.24
2022-10-29T17:58:28.334Z,14.26
2022-10-29T18:01:03.629Z,14.20
2022-10-29T18:03:34.150Z,14.12
2022-10-29T18:06:02.559Z,14.01
2022-10-29T18:08:34.794Z,13.92
2022-10-29T18:11:10.083Z,13.89
2022-10-29T18:13:41.714Z,13.89
2022-10-29T18:16:11.046Z,13.92
2022-10-29T18:18:54.379Z,13.83
2022-10-29T18:21:27.888Z,13.76
2022-10-29T18:23:55.176Z,13.67
2022-10-29T18:26:36.149Z,13.64
2022-10-29T18:29:07.441Z,13.74
2022-10-29T18:31:36.686Z,13.75
2022-10-29T18:34:06.778Z,13.77
2022-10-29T18:36:35.206Z,13.64
2022-10-29T18:39:04.085Z,13.62
2022-10-29T18:41:31.615Z,13.64
2022-10-29T18:44:01.883Z,13.53
2022-10-29T18:46:29.186Z,13.49
2022-10-29T18:48:56.455Z,13.56
2022-10-29T18:51:27.265Z,13.34
2022-10-29T18:53:55.819Z,13.31
2022-10-29T18:56:27.157Z,13.34
2022-10-29T18:59:00.722Z,13.24
2022-10-29T19:01:30.719Z,13.23
2022-10-29T19:04:00.435Z,13.21
2022-10-29T19:06:31.448Z,13.25
2022-10-29T19:09:05.069Z,13.28
2022-10-29T19:11:32.507Z,13.10
2022-10-29T19:14:03.076Z,13.09
2022-10-29T19:16:31.907Z,13.09
2022-10-29T19:21:41.433Z,13.03
2022-10-29T19:24:14.850Z,12.93
2022-10-29T19:26:44.710Z,12.86
2022-10-29T19:29:15.401Z,12.89
2022-10-29T19:31:44.906Z,12.78
2022-10-29T19:34:12.259Z,12.74
2022-10-29T19:36:39.610Z,12.87
2022-10-29T19:39:07.641Z,12.84
2022-10-29T19:41:35.193Z,12.84
2022-10-29T19:44:03.229Z,12.97
2022-10-29T19:46:30.939Z,12.95
2022-10-29T19:48:58.616Z,12.86
2022-10-29T19:51:26.183Z,12.77
2022-10-29T19:53:53.489Z,12.78
2022-10-29T19:56:21.535Z,12.86
2022-10-29T19:58:51.391Z,12.85
2022-10-29T20:01:19.164Z,12.75
2022-10-29T20:03:47.520Z,12.74
2022-10-29T20:06:15.480Z,12.79
2022-10-29T20:08:43.273Z,12.73
2022-10-29T20:11:10.625Z,12.66
2022-10-29T20:13:38.053Z,12.58
2022-10-29T20:16:15.938Z,12.58
2022-10-29T20:18:43.709Z,12.67
2022-10-29T20:21:12.267Z,12.66
2022-10-29T20:23:39.956Z,12.65
2022-10-29T20:26:07.822Z,12.60
2022-10-29T20:28:35.379Z,12.58
2022-10-29T20:31:17.653Z,12.51
2022-10-29T20:33:52.533Z,12.43
2022-10-29T20:36:20.207Z,12.43
2022-10-29T20:38:49.035Z,12.36
2022-10-29T20:41:17.083Z,12.38
2022-10-29T20:44:01.059Z,12.39
2022-10-29T20:46:29.034Z,12.53
2022-10-29T20:48:56.431Z,12.38
2022-10-29T20:51:24.833Z,12.26
2022-10-29T20:53:52.839Z,12.22
2022-10-29T20:56:24.455Z,12.29
2022-10-29T20:58:52.076Z,12.17
2022-10-29T21:01:21.340Z,12.18
2022-10-29T21:03:49.846Z,12.10
2022-10-29T21:06:17.808Z,12.15
2022-10-29T21:08:46.666Z,11.92
2022-10-29T21:11:15.799Z,12.04
2022-10-29T21:13:43.177Z,11.98
2022-10-29T21:16:15.213Z,11.89
2022-10-29T21:18:52.904Z,11.78
2022-10-29T21:21:20.759Z,11.95
2022-10-29T21:23:51.074Z,11.96
2022-10-29T21:26:23.698Z,11.98
2022-10-29T21:28:52.484Z,11.98
2022-10-29T21:31:21.363Z,12.01
2022-10-29T21:33:50.306Z,12.09
2022-10-29T21:36:17.636Z,12.04
2022-10-29T21:38:44.907Z,11.87
2022-10-29T21:41:12.176Z,11.83
2022-10-29T21:43:39.651Z,11.69
2022-10-29T21:46:07.406Z,11.63
2022-10-29T21:48:34.748Z,11.66
2022-10-29T21:51:07.942Z,11.72
2022-10-29T21:53:38.265Z,11.55
2022-10-29T21:56:08.054Z,11.46
2022-10-29T21:58:35.406Z,11.42
2022-10-29T22:01:07.126Z,11.32
2022-10-29T22:03:36.224Z,11.49
2022-10-29T22:06:05.601Z,11.34
2022-10-29T22:08:34.151Z,11.22
2022-10-29T22:11:01.924Z,11.32
2022-10-29T22:13:30.741Z,11.35
2022-10-29T22:15:58.333Z,11.25
2022-10-29T22:18:26.789Z,11.16
2022-10-29T22:21:13.895Z,11.18
2022-10-29T22:23:53.495Z,11.27
2022-10-29T22:26:24.840Z,11.33
2022-10-29T22:28:53.451Z,11.33
2022-10-29T22:31:22.483Z,11.28
2022-10-29T22:33:50.549Z,11.29
2022-10-29T22:36:21.086Z,11.16
2022-10-29T22:39:00.156Z,11.20
2022-10-29T22:41:28.573Z,11.14
2022-10-29T22:43:56.815Z,11.01
2022-10-29T22:46:27.844Z,10.92
2022-10-29T22:48:55.972Z,11.12
2022-10-29T22:51:28.623Z,11.19
2022-10-29T22:53:56.536Z,11.10
2022-10-29T22:56:25.490Z,11.07
2022-10-29T22:58:52.895Z,10.98
2022-10-29T23:01:22.800Z,11.00
2022-10-29T23:03:50.769Z,11.13
2022-10-29T23:06:20.228Z,11.00
2022-10-29T23:08:50.465Z,11.03
2022-10-29T23:11:20.712Z,11.00
2022-10-29T23:13:53.157Z,11.03
2022-10-29T23:16:21.590Z,11.03
2022-10-29T23:18:50.365Z,10.97
2022-10-29T23:21:18.094Z,10.97
2022-10-29T23:23:46.093Z,10.96
2022-10-29T23:26:13.644Z,10.89
2022-10-29T23:28:41.397Z,10.81
2022-10-29T23:31:15.129Z,10.67
2022-10-29T23:33:47.209Z,10.66
2022-10-29T23:36:16.625Z,10.58
2022-10-29T23:38:44.033Z,10.51
2022-10-29T23:41:11.911Z,10.55
2022-10-29T23:43:39.297Z,10.43
2022-10-29T23:46:06.974Z,10.40
2022-10-29T23:48:34.251Z,10.43
2022-10-29T23:51:01.616Z,10.32
2022-10-29T23:53:28.923Z,10.30
2022-10-29T23:55:56.377Z,10.45
2022-10-29T23:58:23.759Z,10.59
